createdAt,value
2023-01-13T00:32:56.477Z,1.37
2023-01-13T00:33:56.380Z,1.00
2023-01-13T00:34:56.383Z,1.13
2023-01-13T00:35:56.397Z,1.12
2023-01-13T00:36:56.354Z,1.19
2023-01-13T00:37:56.377Z,1.53
2023-01-13T00:38:56.382Z,1.13
2023-01-13T00:39:56.349Z,2.23
2023-01-13T00:40:56.379Z,1.41
2023-01-13T00:41:56.364Z,1.37
2023-01-13T00:42:56.380Z,1.58
2023-01-13T00:43:56.376Z,1.57
2023-01-13T00:44:56.405Z,1.11
2023-01-13T00:45:56.376Z,1.00
2023-01-13T00:46:56.369Z,0.72
2023-01-13T00:47:56.393Z,1.86
2023-01-13T00:48:56.408Z,1.44
2023-01-13T00:49:56.404Z,1.18
2023-01-13T00:50:56.378Z,1.36
2023-01-13T00:51:56.376Z,1.07
2023-01-13T00:52:56.377Z,1.76
2023-01-13T00:53:56.423Z,1.03
2023-01-13T00:54:56.406Z,1.33
2023-01-13T00:55:56.379Z,1.21
2023-01-13T00:56:56.383Z,0.77
2023-01-13T00:57:56.422Z,0.71
2023-01-13T00:58:56.419Z,1.30
2023-01-13T00:59:56.362Z,1.44
2023-01-13T01:00:56.546Z,1.55
2023-01-13T01:01:56.481Z,1.45
2023-01-13T01:02:56.388Z,0.44
2023-01-13T01:03:56.383Z,1.17
2023-01-13T01:04:56.395Z,1.62
2023-01-13T01:05:56.400Z,1.58
2023-01-13T01:06:56.390Z,1.09
2023-01-13T01:07:56.398Z,1.86
2023-01-13T01:08:56.444Z,0.78
2023-01-13T01:09:56.511Z,0.80
2023-01-13T01:10:56.628Z,1.06
2023-01-13T01:11:56.656Z,1.45
2023-01-13T01:12:56.647Z,1.13
2023-01-13T01:13:56.711Z,1.24
2023-01-13T01:14:56.700Z,2.18
2023-01-13T01:15:56.709Z,0.72
2023-01-13T01:16:56.687Z,1.39
2023-01-13T01:17:56.699Z,1.32
2023-01-13T01:18:56.716Z,1.50
2023-01-13T01:19:56.744Z,1.52
2023-01-13T01:20:56.756Z,1.30
2023-01-13T01:21:56.729Z,1.10
2023-01-13T01:22:56.736Z,1.30
2023-01-13T01:23:56.759Z,1.54
2023-01-13T01:24:56.756Z,1.05
2023-01-13T01:25:56.775Z,0.75
2023-01-13T01:26:56.829Z,1.46
2023-01-13T01:27:56.771Z,1.02
2023-01-13T01:28:56.799Z,0.72
2023-01-13T01:29:56.811Z,2.58
2023-01-13T01:30:56.899Z,1.01
2023-01-13T01:31:56.867Z,1.56
2023-01-13T01:32:56.871Z,2.07
2023-01-13T01:33:56.908Z,1.03
2023-01-13T01:34:56.873Z,1.63
2023-01-13T01:35:56.894Z,1.47
2023-01-13T01:36:56.957Z,1.06
2023-01-13T01:37:56.936Z,1.24
2023-01-13T01:38:56.957Z,1.20
2023-01-13T01:39:56.938Z,0.95
2023-01-13T01:40:56.961Z,1.52
2023-01-13T01:41:56.979Z,1.45
2023-01-13T01:42:56.927Z,2.48
2023-01-13T01:43:56.972Z,1.44
2023-01-13T01:44:56.994Z,0.92
2023-01-13T01:45:57.000Z,2.56
2023-01-13T01:46:57.045Z,1.94
2023-01-13T01:47:57.014Z,1.54
2023-01-13T01:48:57.019Z,0.77
2023-01-13T01:49:57.040Z,0.80
2023-01-13T01:50:57.054Z,1.55
2023-01-13T01:51:57.089Z,0.86
2023-01-13T01:52:57.110Z,1.97
2023-01-13T01:53:57.103Z,2.53
2023-01-13T01:54:57.255Z,1.26
2023-01-13T01:55:57.185Z,1.79
2023-01-13T01:56:57.177Z,1.38
2023-01-13T01:57:57.164Z,2.00
2023-01-13T01:58:57.173Z,1.06
2023-01-13T01:59:57.191Z,1.50
2023-01-13T02:00:57.312Z,1.85
2023-01-13T02:01:57.316Z,0.92
2023-01-13T02:02:57.206Z,0.93
2023-01-13T02:03:57.278Z,1.46
2023-01-13T02:04:57.302Z,0.93
2023-01-13T02:05:57.259Z,0.70
2023-01-13T02:06:57.298Z,0.83
2023-01-13T02:07:57.289Z,0.92
2023-01-13T02:08:57.317Z,0.85
2023-01-13T02:09:57.359Z,1.38
2023-01-13T02:10:57.353Z,0.97
2023-01-13T02:11:57.371Z,0.93
2023-01-13T02:12:57.396Z,0.98
2023-01-13T02:13:57.453Z,0.86
2023-01-13T02:14:57.411Z,1.22
2023-01-13T02:15:57.437Z,0.75
2023-01-13T02:16:57.357Z,0.89
2023-01-13T02:17:57.401Z,0.83
2023-01-13T02:18:57.413Z,0.63
2023-01-13T02:19:57.480Z,0.96
2023-01-13T02:20:57.438Z,1.06
2023-01-13T02:21:57.459Z,1.13
2023-01-13T02:22:57.502Z,1.38
2023-01-13T02:23:57.467Z,1.83
2023-01-13T02:24:57.507Z,1.66
2023-01-13T02:25:57.514Z,0.66
2023-01-13T02:26:57.530Z,0.98
2023-01-13T02:27:57.545Z,1.82
2023-01-13T02:28:57.558Z,1.40
2023-01-13T02:29:57.573Z,1.07
2023-01-13T02:30:57.577Z,1.78
2023-01-13T02:31:57.622Z,2.75
2023-01-13T02:32:57.585Z,1.42
2023-01-13T02:33:57.584Z,0.96
2023-01-13T02:34:57.605Z,1.40
2023-01-13T02:35:57.601Z,1.76
2023-01-13T02:36:57.603Z,1.45
2023-01-13T02:37:57.647Z,1.45
2023-01-13T02:38:57.682Z,1.53
2023-01-13T02:39:57.709Z,1.78
2023-01-13T02:40:57.688Z,1.03
2023-01-13T02:41:57.683Z,1.86
2023-01-13T02:42:57.681Z,1.75
2023-01-13T02:43:57.697Z,1.23
2023-01-13T02:44:57.728Z,1.83
2023-01-13T02:45:57.799Z,1.94
2023-01-13T02:46:57.736Z,0.58
2023-01-13T02:47:57.748Z,1.64
2023-01-13T02:48:57.746Z,1.16
2023-01-13T02:49:57.784Z,0.64
2023-01-13T02:50:57.793Z,1.47
2023-01-13T02:51:57.781Z,1.98
2023-01-13T02:52:57.821Z,2.38
2023-01-13T02:53:57.860Z,0.96
2023-01-13T02:54:57.836Z,2.36
2023-01-13T02:55:57.838Z,1.72
2023-01-13T02:56:57.875Z,1.44
2023-01-13T02:57:57.871Z,0.90
2023-01-13T02:58:57.900Z,1.52
2023-01-13T02:59:57.936Z,1.22
2023-01-13T03:00:58.096Z,1.87
2023-01-13T03:01:58.132Z,1.12
2023-01-13T03:02:58.010Z,1.36
2023-01-13T03:03:57.961Z,2.04
2023-01-13T03:04:57.964Z,1.44
2023-01-13T03:05:57.984Z,2.17
2023-01-13T03:06:57.977Z,1.95
2023-01-13T03:07:58.041Z,1.43
2023-01-13T03:08:58.041Z,1.27
2023-01-13T03:09:58.071Z,1.02
2023-01-13T03:10:58.078Z,1.00
2023-01-13T03:11:58.055Z,1.03
2023-01-13T03:12:58.123Z,1.96
2023-01-13T03:13:58.140Z,0.93
2023-01-13T03:14:58.163Z,2.03
2023-01-13T03:15:58.182Z,2.18
2023-01-13T03:16:58.158Z,1.39
2023-01-13T03:17:58.169Z,1.06
2023-01-13T03:18:58.189Z,1.46
2023-01-13T03:19:58.168Z,1.46
2023-01-13T03:20:58.191Z,0.99
2023-01-13T03:21:58.199Z,1.75
2023-01-13T03:22:58.159Z,1.62
2023-01-13T03:23:58.230Z,2.12
2023-01-13T03:24:58.271Z,1.90
2023-01-13T03:25:58.281Z,1.82
2023-01-13T03:26:58.264Z,1.99
2023-01-13T03:27:58.302Z,2.09
2023-01-13T03:28:58.335Z,2.37
2023-01-13T03:29:58.334Z,2.59
2023-01-13T03:30:58.336Z,1.12
2023-01-13T03:31:58.345Z,1.22
2023-01-13T03:32:58.309Z,1.03
2023-01-13T03:33:58.333Z,2.19
2023-01-13T03:34:58.330Z,2.78
2023-01-13T03:35:58.324Z,1.67
2023-01-13T03:36:58.360Z,0.93
2023-01-13T03:37:58.569Z,1.07
2023-01-13T03:38:58.418Z,1.16
2023-01-13T03:39:58.407Z,1.34
2023-01-13T03:41:47.113Z,1.72
2023-01-13T03:42:47.121Z,1.35
2023-01-13T03:43:47.115Z,1.36
2023-01-13T03:44:47.130Z,1.54
2023-01-13T03:45:47.228Z,0.76
2023-01-13T03:46:47.117Z,0.90
2023-01-13T03:47:47.150Z,0.93
2023-01-13T03:48:47.146Z,1.00
2023-01-13T03:49:47.160Z,1.43
2023-01-13T03:50:47.130Z,0.98
2023-01-13T03:51:47.152Z,1.72
2023-01-13T03:52:47.114Z,0.53
2023-01-13T03:53:47.136Z,1.41
2023-01-13T03:54:47.164Z,0.43
2023-01-13T03:55:47.157Z,0.67
2023-01-13T03:56:47.116Z,0.94
2023-01-13T03:57:47.169Z,0.99
2023-01-13T03:58:47.137Z,1.35
2023-01-13T03:59:47.121Z,1.21
2023-01-13T04:00:47.121Z,1.26
2023-01-13T04:01:47.233Z,0.81
2023-01-13T04:02:47.130Z,0.76
2023-01-13T04:03:47.146Z,0.71
2023-01-13T04:04:47.134Z,1.13
2023-01-13T04:05:47.142Z,0.69
2023-01-13T04:06:47.124Z,0.84
2023-01-13T04:07:47.120Z,1.08
2023-01-13T04:08:47.140Z,0.85
2023-01-13T04:09:47.137Z,0.76
2023-01-13T04:10:47.135Z,0.83
2023-01-13T04:11:47.132Z,0.59
2023-01-13T04:12:47.156Z,0.57
2023-01-13T04:13:47.146Z,1.36
2023-01-13T04:14:47.124Z,0.40
2023-01-13T04:15:47.193Z,0.82
2023-01-13T04:16:47.173Z,0.68
2023-01-13T04:17:47.320Z,1.43
2023-01-13T04:18:47.334Z,0.53
2023-01-13T04:19:47.340Z,0.81
2023-01-13T04:20:47.347Z,0.43
2023-01-13T04:21:47.358Z,0.79
2023-01-13T04:22:47.344Z,0.53
2023-01-13T04:23:47.452Z,0.60
2023-01-13T04:24:47.448Z,0.53
2023-01-13T04:25:47.470Z,0.00
2023-01-13T04:26:47.473Z,0.42
2023-01-13T04:27:47.460Z,0.15
2023-01-13T04:28:47.491Z,0.38
2023-01-13T04:29:47.469Z,0.53
2023-01-13T04:30:47.554Z,0.87
2023-01-13T04:31:47.524Z,0.34
2023-01-13T04:32:47.538Z,0.36
2023-01-13T04:33:47.560Z,0.32
2023-01-13T04:34:47.565Z,0.41
2023-01-13T04:35:47.575Z,1.17
2023-01-13T04:36:47.569Z,0.74
2023-01-13T04:37:47.584Z,0.64
2023-01-13T04:38:47.566Z,0.50
2023-01-13T04:39:47.583Z,0.28
2023-01-13T04:40:47.586Z,1.07
2023-01-13T04:41:47.642Z,0.41
2023-01-13T04:42:47.645Z,0.53
2023-01-13T04:43:47.667Z,0.49
2023-01-13T04:44:47.703Z,0.49
2023-01-13T04:45:47.671Z,0.27
2023-01-13T04:46:47.744Z,0.92
2023-01-13T04:47:47.722Z,1.06
2023-01-13T04:48:47.717Z,1.04
2023-01-13T04:49:47.795Z,1.16
2023-01-13T04:50:47.732Z,0.88
2023-01-13T04:51:47.724Z,0.53
2023-01-13T04:52:47.727Z,0.49
2023-01-13T04:53:47.751Z,1.25
2023-01-13T04:54:47.892Z,0.91
2023-01-13T04:55:47.816Z,0.08
2023-01-13T04:56:47.838Z,0.66
2023-01-13T04:57:47.845Z,0.49
2023-01-13T04:58:47.834Z,0.55
2023-01-13T04:59:47.840Z,0.67
2023-01-13T05:00:47.858Z,0.43
2023-01-13T05:01:47.916Z,0.43
2023-01-13T05:02:47.952Z,0.29
2023-01-13T05:03:47.860Z,0.09
2023-01-13T05:04:47.901Z,0.63
2023-01-13T05:05:47.857Z,0.00
2023-01-13T05:06:47.859Z,0.16
2023-01-13T05:07:47.958Z,0.62
2023-01-13T05:08:47.972Z,0.26
2023-01-13T05:09:48.002Z,0.00
2023-01-13T05:10:47.977Z,0.01
2023-01-13T05:11:47.971Z,0.18
2023-01-13T05:12:47.979Z,0.49
2023-01-13T05:13:47.995Z,0.75
2023-01-13T05:14:47.985Z,0.64
2023-01-13T05:15:48.092Z,0.09
2023-01-13T05:16:48.067Z,0.28
2023-01-13T05:17:48.068Z,0.06
2023-01-13T05:18:48.087Z,0.72
2023-01-13T05:19:48.078Z,0.88
2023-01-13T05:20:48.111Z,3.33
2023-01-13T05:21:48.074Z,1.09
2023-01-13T05:22:48.077Z,0.70
2023-01-13T05:23:48.087Z,0.71
2023-01-13T05:24:48.160Z,0.85
2023-01-13T05:25:48.189Z,0.21
2023-01-13T05:26:48.161Z,0.00
2023-01-13T05:27:48.167Z,0.36
2023-01-13T05:28:48.163Z,0.36
2023-01-13T05:29:48.192Z,0.69
2023-01-13T05:30:48.209Z,0.04
2023-01-13T05:31:48.162Z,0.00
2023-01-13T05:32:48.153Z,0.00
2023-01-13T05:33:48.201Z,0.00
2023-01-13T05:34:48.207Z,0.10
2023-01-13T05:35:48.197Z,0.00
2023-01-13T05:36:48.296Z,0.01
2023-01-13T05:37:48.300Z,0.00
2023-01-13T05:38:48.330Z,0.00
2023-01-13T05:39:48.327Z,0.02
2023-01-13T05:40:48.364Z,0.11
2023-01-13T05:41:48.369Z,0.12
2023-01-13T05:42:51.096Z,0.17
2023-01-13T05:43:48.440Z,0.49
2023-01-13T05:44:48.466Z,0.01
2023-01-13T05:45:48.465Z,0.00
2023-01-13T05:46:48.543Z,0.00
2023-01-13T05:47:48.479Z,0.00
2023-01-13T05:48:48.495Z,0.00
2023-01-13T05:49:48.527Z,0.24
2023-01-13T05:50:48.533Z,0.05
2023-01-13T05:51:48.541Z,0.33
2023-01-13T05:52:48.534Z,0.00
2023-01-13T05:53:48.529Z,0.00
2023-01-13T05:54:48.565Z,0.00
2023-01-13T05:55:48.518Z,0.00
2023-01-13T05:56:48.700Z,0.00
2023-01-13T05:57:48.609Z,0.00
2023-01-13T05:58:48.648Z,0.00
2023-01-13T05:59:48.649Z,0.00
2023-01-13T06:00:48.680Z,0.00
2023-01-13T06:01:48.668Z,0.00
2023-01-13T06:02:48.695Z,0.00
2023-01-13T06:03:48.657Z,0.00
2023-01-13T06:04:48.675Z,0.05
2023-01-13T06:05:48.671Z,0.01
2023-01-13T06:06:48.647Z,0.03
2023-01-13T06:07:48.706Z,0.00
2023-01-13T06:08:48.684Z,0.00
2023-01-13T06:09:48.781Z,0.00
2023-01-13T06:10:48.809Z,0.01
2023-01-13T06:11:48.794Z,0.00
2023-01-13T06:12:48.802Z,0.00
2023-01-13T06:13:48.813Z,0.00
2023-01-13T06:14:48.881Z,0.00
2023-01-13T06:15:48.885Z,0.00
2023-01-13T06:16:48.867Z,0.00
2023-01-13T06:17:48.864Z,0.00
2023-01-13T06:18:48.885Z,0.00
2023-01-13T06:19:48.878Z,0.01
2023-01-13T06:20:48.897Z,0.00
2023-01-13T06:21:48.899Z,0.10
2023-01-13T06:22:48.916Z,0.39
2023-01-13T06:23:48.910Z,0.43
2023-01-13T06:24:48.927Z,0.01
2023-01-13T06:25:48.954Z,0.24
2023-01-13T06:26:48.965Z,0.01
2023-01-13T06:27:48.974Z,0.01
2023-01-13T06:28:48.999Z,0.00
2023-01-13T06:29:48.982Z,0.00
2023-01-13T06:30:49.004Z,0.00
2023-01-13T06:31:49.053Z,0.01
2023-01-13T06:32:49.050Z,0.12
2023-01-13T06:33:49.043Z,0.16
2023-01-13T06:34:49.048Z,0.01
2023-01-13T06:35:49.044Z,0.00
2023-01-13T06:36:49.061Z,0.00
2023-01-13T06:37:49.055Z,0.00
2023-01-13T06:38:49.117Z,0.00
2023-01-13T06:39:49.143Z,0.00
2023-01-13T06:40:49.167Z,0.89
2023-01-13T06:41:49.137Z,0.63
2023-01-13T06:42:49.154Z,0.40
2023-01-13T06:43:49.157Z,0.00
2023-01-13T06:44:49.181Z,0.00
2023-01-13T06:45:49.196Z,0.00
2023-01-13T06:46:49.261Z,0.00
2023-01-13T06:47:49.227Z,0.00
2023-01-13T06:48:49.256Z,0.00
2023-01-13T06:49:49.270Z,0.01
2023-01-13T06:50:49.242Z,0.69
2023-01-13T06:51:49.272Z,0.13
2023-01-13T06:52:49.284Z,0.01
2023-01-13T06:53:49.290Z,0.67
2023-01-13T06:54:49.326Z,0.43
2023-01-13T06:55:49.325Z,0.92
2023-01-13T06:56:49.337Z,0.36
2023-01-13T06:57:49.315Z,0.00
2023-01-13T06:58:49.353Z,0.00
2023-01-13T06:59:50.620Z,0.00
2023-01-13T07:00:49.412Z,0.00
2023-01-13T07:01:49.678Z,0.00
2023-01-13T07:02:49.447Z,0.22
2023-01-13T07:03:49.419Z,0.60
2023-01-13T07:04:49.419Z,0.41
2023-01-13T07:05:49.435Z,0.00
2023-01-13T07:06:49.462Z,0.01
2023-01-13T07:07:49.465Z,0.01
2023-01-13T07:08:49.459Z,0.00
2023-01-13T07:09:49.480Z,0.00
2023-01-13T07:10:49.492Z,0.52
2023-01-13T07:11:49.514Z,0.23
2023-01-13T07:12:49.511Z,0.14
2023-01-13T07:13:49.519Z,0.00
2023-01-13T07:14:49.528Z,0.81
2023-01-13T07:15:49.527Z,0.19
2023-01-13T07:16:49.619Z,0.98
2023-01-13T07:17:49.536Z,1.16
2023-01-13T07:18:49.543Z,0.14
2023-01-13T07:19:49.609Z,0.03
2023-01-13T07:20:49.599Z,0.15
2023-01-13T07:21:49.618Z,0.18
2023-01-13T07:22:49.601Z,0.00
2023-01-13T07:23:49.672Z,0.54
2023-01-13T07:24:49.613Z,0.03
2023-01-13T07:25:49.641Z,0.01
2023-01-13T07:26:49.698Z,0.00
2023-01-13T07:27:49.705Z,0.03
2023-01-13T07:28:49.693Z,0.72
2023-01-13T07:29:49.702Z,0.17
2023-01-13T07:30:49.683Z,0.00
2023-01-13T07:31:50.079Z,0.00
2023-01-13T07:32:49.752Z,0.32
2023-01-13T07:33:49.776Z,0.33
2023-01-13T07:34:49.791Z,0.05
2023-01-13T07:35:49.786Z,0.00
2023-01-13T07:36:49.810Z,0.00
2023-01-13T07:37:49.809Z,0.00
2023-01-13T07:38:49.783Z,0.70
2023-01-13T07:39:49.791Z,1.38
2023-01-13T07:40:49.781Z,0.69
2023-01-13T07:41:49.783Z,0.76
2023-01-13T07:42:49.806Z,0.13
2023-01-13T07:43:49.846Z,0.00
2023-01-13T07:44:49.826Z,0.17
2023-01-13T07:45:49.985Z,0.08
2023-01-13T07:46:49.919Z,0.43
2023-01-13T07:47:49.963Z,0.00
2023-01-13T07:48:50.077Z,0.42
2023-01-13T07:49:49.977Z,0.74
2023-01-13T07:50:49.976Z,0.20
2023-01-13T07:51:49.984Z,0.77
2023-01-13T07:52:49.977Z,0.72
2023-01-13T07:53:49.991Z,0.66
2023-01-13T07:54:50.037Z,0.75
2023-01-13T07:55:50.013Z,1.25
2023-01-13T07:56:49.979Z,0.74
2023-01-13T07:57:50.045Z,1.32
2023-01-13T07:58:50.027Z,0.52
2023-01-13T07:59:50.079Z,0.57
2023-01-13T08:00:50.112Z,0.72
2023-01-13T08:01:50.276Z,0.16
2023-01-13T08:02:50.159Z,0.34
2023-01-13T08:03:50.116Z,1.22
2023-01-13T08:04:50.135Z,0.39
2023-01-13T08:05:50.188Z,0.93
2023-01-13T08:06:50.151Z,0.45
2023-01-13T08:07:50.197Z,0.00
2023-01-13T08:08:50.201Z,0.03
2023-01-13T08:09:50.219Z,1.10
2023-01-13T08:10:50.179Z,1.01
2023-01-13T08:11:50.182Z,0.65
2023-01-13T08:12:54.291Z,0.84
2023-01-13T08:13:50.209Z,0.48
2023-01-13T08:14:50.198Z,0.98
2023-01-13T08:15:50.210Z,0.54
2023-01-13T08:16:50.231Z,0.28
2023-01-13T08:17:50.215Z,0.58
2023-01-13T08:18:50.200Z,0.45
2023-01-13T08:19:50.211Z,1.01
2023-01-13T08:20:50.200Z,0.82
2023-01-13T08:21:50.209Z,0.73
2023-01-13T08:22:50.209Z,0.69
2023-01-13T08:23:50.242Z,0.95
2023-01-13T08:24:50.187Z,0.86
2023-01-13T08:25:50.219Z,0.71
2023-01-13T08:26:50.258Z,1.15
2023-01-13T08:27:50.213Z,0.69
2023-01-13T08:28:50.220Z,1.33
2023-01-13T08:29:50.220Z,0.03
2023-01-13T08:30:50.267Z,0.55
2023-01-13T08:31:50.208Z,0.71
2023-01-13T08:32:50.232Z,1.22
2023-01-13T08:33:50.209Z,0.16
2023-01-13T08:34:50.222Z,0.00
2023-01-13T08:35:50.211Z,0.36
2023-01-13T08:36:50.218Z,1.11
2023-01-13T08:37:50.249Z,1.22
2023-01-13T08:38:50.231Z,1.37
2023-01-13T08:39:50.219Z,1.77
2023-01-13T08:40:50.233Z,2.91
2023-01-13T08:41:50.210Z,0.60
2023-01-13T08:42:50.231Z,1.04
2023-01-13T08:43:50.271Z,0.59
2023-01-13T08:44:50.227Z,0.17
2023-01-13T08:45:50.231Z,0.00
2023-01-13T08:46:50.232Z,0.00
2023-01-13T08:47:50.240Z,1.46
2023-01-13T08:48:50.244Z,0.73
2023-01-13T08:49:50.224Z,0.65
2023-01-13T08:50:50.241Z,0.27
2023-01-13T08:51:50.270Z,0.27
2023-01-13T08:52:50.240Z,1.26
2023-01-13T08:53:50.273Z,0.92
2023-01-13T08:54:50.239Z,0.81
2023-01-13T08:55:50.252Z,1.20
2023-01-13T08:56:50.281Z,2.18
2023-01-13T08:57:50.244Z,1.56
2023-01-13T08:58:50.265Z,0.86
2023-01-13T08:59:50.246Z,0.90
2023-01-13T09:00:50.259Z,2.46
2023-01-13T09:01:50.370Z,1.30
2023-01-13T09:02:50.252Z,1.36
2023-01-13T09:03:50.264Z,1.35
2023-01-13T09:04:50.300Z,1.19
2023-01-13T09:05:50.248Z,1.47
2023-01-13T09:06:50.235Z,0.45
2023-01-13T09:07:50.248Z,1.42
2023-01-13T09:08:50.281Z,1.53
2023-01-13T09:09:50.262Z,0.84
2023-01-13T09:10:50.242Z,0.59
2023-01-13T09:11:52.240Z,0.97
2023-01-13T09:12:50.260Z,2.18
2023-01-13T09:13:50.282Z,0.76
2023-01-13T09:14:50.262Z,1.86
2023-01-13T09:15:50.285Z,2.06
2023-01-13T09:16:50.294Z,1.29
2023-01-13T09:17:50.276Z,0.84
2023-01-13T09:18:50.246Z,1.71
2023-01-13T09:19:50.270Z,1.38
2023-01-13T09:20:50.261Z,2.63
2023-01-13T09:21:50.458Z,1.83
2023-01-13T09:22:50.339Z,1.79
2023-01-13T09:23:50.272Z,0.35
2023-01-13T09:24:50.310Z,0.29
2023-01-13T09:25:50.253Z,0.66
2023-01-13T09:26:50.287Z,0.87
2023-01-13T09:27:50.264Z,1.03
2023-01-13T09:28:50.241Z,1.73
2023-01-13T09:29:50.328Z,0.91
2023-01-13T09:30:50.297Z,1.80
2023-01-13T09:31:50.285Z,2.53
2023-01-13T09:32:50.296Z,1.31
2023-01-13T09:33:50.315Z,1.79
2023-01-13T09:34:50.301Z,1.73
2023-01-13T09:35:50.306Z,1.47
2023-01-13T09:36:50.279Z,0.91
2023-01-13T09:37:50.287Z,0.96
2023-01-13T09:38:50.283Z,1.09
2023-01-13T09:39:50.296Z,1.08
2023-01-13T09:40:50.303Z,0.88
2023-01-13T09:42:08.783Z,1.42
2023-01-13T09:43:08.623Z,0.60
2023-01-13T09:44:08.632Z,0.45
2023-01-13T09:45:08.611Z,1.35
2023-01-13T09:46:08.719Z,1.17
2023-01-13T09:47:08.826Z,2.07
2023-01-13T09:48:08.662Z,0.42
2023-01-13T09:49:08.625Z,0.88
2023-01-13T09:50:08.672Z,1.55
2023-01-13T09:51:08.761Z,0.33
2023-01-13T09:52:08.701Z,1.09
2023-01-13T09:53:12.812Z,0.71
2023-01-13T09:54:20.364Z,0.81
2023-01-13T09:55:08.635Z,1.74
2023-01-13T09:56:08.801Z,0.92
2023-01-13T09:57:08.701Z,1.19
2023-01-13T09:58:08.823Z,1.11
2023-01-13T09:59:08.694Z,1.90
2023-01-13T10:00:08.727Z,1.20
2023-01-13T10:01:08.775Z,0.66
2023-01-13T10:02:08.735Z,1.49
2023-01-13T10:03:08.745Z,0.98
2023-01-13T10:04:09.324Z,1.00
2023-01-13T10:05:08.723Z,0.75
2023-01-13T10:06:08.710Z,1.16
2023-01-13T10:07:08.674Z,0.99
2023-01-13T10:08:08.666Z,1.47
2023-01-13T10:09:08.703Z,1.35
2023-01-13T10:10:09.507Z,1.77
2023-01-13T10:11:08.679Z,0.96
2023-01-13T10:12:08.691Z,0.82
2023-01-13T10:13:08.734Z,0.37
2023-01-13T10:14:08.681Z,1.41
2023-01-13T10:15:08.651Z,0.84
2023-01-13T10:16:08.708Z,2.41
2023-01-13T10:17:08.920Z,1.34
2023-01-13T10:18:08.862Z,0.61
2023-01-13T10:19:08.954Z,1.08
2023-01-13T10:20:08.902Z,1.67
2023-01-13T10:21:08.935Z,1.05
2023-01-13T10:22:09.484Z,0.16
2023-01-13T10:23:08.980Z,1.16
2023-01-13T10:24:08.959Z,1.22
2023-01-13T10:25:08.973Z,1.43
2023-01-13T10:26:08.990Z,1.50
2023-01-13T10:27:08.982Z,0.76
2023-01-13T10:28:08.997Z,0.94
2023-01-13T10:29:08.990Z,0.48
2023-01-13T10:30:09.066Z,1.05
2023-01-13T10:31:09.077Z,2.46
2023-01-13T10:32:09.076Z,1.25
2023-01-13T10:33:09.075Z,1.32
2023-01-13T10:34:09.116Z,0.92
2023-01-13T10:35:09.249Z,0.37
2023-01-13T10:36:09.314Z,1.01
2023-01-13T10:37:09.218Z,2.14
2023-01-13T10:38:09.137Z,0.85
2023-01-13T10:39:09.237Z,0.07
2023-01-13T10:40:09.164Z,1.62
2023-01-13T10:41:09.169Z,1.23
2023-01-13T10:42:09.186Z,0.81
2023-01-13T10:43:09.165Z,0.42
2023-01-13T10:44:09.826Z,1.05
2023-01-13T10:45:09.199Z,1.11
2023-01-13T10:46:09.251Z,0.21
2023-01-13T10:47:09.211Z,0.15
2023-01-13T10:48:09.200Z,0.62
2023-01-13T10:49:09.267Z,0.82
2023-01-13T10:50:09.669Z,0.47
2023-01-13T10:51:09.232Z,0.78
2023-01-13T10:52:09.344Z,1.10
2023-01-13T10:53:09.316Z,2.02
2023-01-13T10:54:09.334Z,1.85
2023-01-13T10:55:09.350Z,1.84
2023-01-13T10:56:09.367Z,1.81
2023-01-13T10:57:09.366Z,1.27
2023-01-13T10:58:09.383Z,0.37
2023-01-13T10:59:09.426Z,1.01
2023-01-13T11:00:09.374Z,2.03
2023-01-13T11:01:09.409Z,1.77
2023-01-13T11:02:24.344Z,1.35
2023-01-13T11:03:09.396Z,1.27
2023-01-13T11:04:09.399Z,1.36
2023-01-13T11:05:09.437Z,0.84
2023-01-13T11:06:09.422Z,1.23
2023-01-13T11:07:09.397Z,1.99
2023-01-13T11:08:09.400Z,1.80
2023-01-13T11:09:09.382Z,1.85
2023-01-13T11:10:09.379Z,1.01
2023-01-13T11:11:09.410Z,0.99
2023-01-13T11:12:09.417Z,0.94
2023-01-13T11:13:09.422Z,1.06
2023-01-13T11:14:09.419Z,1.59
2023-01-13T11:15:09.417Z,0.76
2023-01-13T11:16:09.447Z,0.10
2023-01-13T11:17:09.461Z,0.39
2023-01-13T11:18:09.400Z,0.66
2023-01-13T11:19:09.414Z,1.40
2023-01-13T11:20:09.415Z,0.58
2023-01-13T11:21:09.406Z,0.98
2023-01-13T11:22:09.450Z,0.20
2023-01-13T11:23:09.445Z,0.18
2023-01-13T11:24:09.455Z,0.26
2023-01-13T11:25:09.415Z,1.52
2023-01-13T11:26:09.409Z,1.45
2023-01-13T11:27:09.459Z,1.45
2023-01-13T11:28:09.452Z,1.87
2023-01-13T11:29:09.441Z,1.74
2023-01-13T11:30:09.445Z,1.65
2023-01-13T11:31:09.457Z,2.02
2023-01-13T11:32:09.693Z,1.20
2023-01-13T11:33:09.518Z,1.13
2023-01-13T11:34:09.536Z,0.39
2023-01-13T11:35:09.514Z,1.26
2023-01-13T11:36:09.539Z,0.68
2023-01-13T11:37:09.472Z,2.13
2023-01-13T11:38:09.494Z,1.70
2023-01-13T11:39:09.509Z,0.88
2023-01-13T11:40:09.470Z,0.84
2023-01-13T11:41:09.484Z,1.15
2023-01-13T11:42:09.509Z,0.31
2023-01-13T11:43:09.605Z,0.43
2023-01-13T11:44:09.596Z,1.18
2023-01-13T11:45:09.595Z,1.42
2023-01-13T11:46:09.548Z,2.13
2023-01-13T11:47:09.534Z,1.69
2023-01-13T11:48:09.602Z,1.69
2023-01-13T11:49:09.871Z,1.16
2023-01-13T11:50:09.653Z,0.27
2023-01-13T11:51:09.619Z,1.47
2023-01-13T11:52:09.598Z,1.75
2023-01-13T11:53:09.661Z,0.28
2023-01-13T11:54:09.682Z,0.40
2023-01-13T11:55:09.657Z,0.82
2023-01-13T11:56:09.693Z,0.81
2023-01-13T11:57:09.699Z,2.00
2023-01-13T11:58:09.711Z,0.92
2023-01-13T11:59:09.719Z,1.06
2023-01-13T12:00:09.756Z,1.58
2023-01-13T12:01:09.824Z,1.21
2023-01-13T12:02:09.824Z,0.47
2023-01-13T12:03:09.848Z,0.87
2023-01-13T12:04:09.750Z,0.44
2023-01-13T12:05:09.810Z,0.56
2023-01-13T12:06:09.805Z,0.83
2023-01-13T12:07:09.810Z,0.45
2023-01-13T12:08:09.836Z,0.74
2023-01-13T12:09:09.863Z,0.75
2023-01-13T12:10:13.385Z,0.77
2023-01-13T12:11:09.920Z,1.17
2023-01-13T12:12:09.889Z,0.94
2023-01-13T12:13:09.854Z,1.96
2023-01-13T12:14:09.932Z,0.18
2023-01-13T12:15:09.841Z,0.92
2023-01-13T12:16:10.144Z,2.55
2023-01-13T12:17:09.870Z,2.65
2023-01-13T12:18:09.845Z,2.04
2023-01-13T12:19:09.856Z,1.08
2023-01-13T12:20:09.871Z,0.58
2023-01-13T12:21:09.897Z,1.82
2023-01-13T12:22:10.085Z,1.40
2023-01-13T12:23:09.887Z,1.92
2023-01-13T12:24:09.850Z,2.46
2023-01-13T12:25:09.885Z,1.40
2023-01-13T12:26:09.883Z,0.73
2023-01-13T12:27:09.856Z,1.45
2023-01-13T12:28:09.898Z,1.48
2023-01-13T12:29:09.853Z,0.65
2023-01-13T12:30:09.869Z,1.01
2023-01-13T12:31:09.918Z,1.51
2023-01-13T12:32:09.902Z,1.46
2023-01-13T12:33:09.951Z,2.16
2023-01-13T12:34:09.890Z,2.06
2023-01-13T12:35:09.866Z,2.25
2023-01-13T12:36:09.869Z,1.87
2023-01-13T12:37:10.073Z,1.87
2023-01-13T12:38:09.867Z,1.64
2023-01-13T12:39:09.888Z,1.41
2023-01-13T12:40:09.874Z,0.64
2023-01-13T12:41:09.876Z,0.99
2023-01-13T12:42:09.887Z,0.64
2023-01-13T12:43:09.870Z,1.41
2023-01-13T12:44:09.929Z,2.51
2023-01-13T12:45:09.911Z,1.48
2023-01-13T12:46:09.969Z,0.16
2023-01-13T12:47:09.903Z,0.00
2023-01-13T12:48:10.012Z,0.45
2023-01-13T12:49:09.907Z,1.22
2023-01-13T12:50:10.052Z,1.85
2023-01-13T12:51:09.956Z,1.37
2023-01-13T12:52:09.965Z,0.71
2023-01-13T12:53:10.058Z,0.51
2023-01-13T12:54:10.081Z,1.16
2023-01-13T12:55:09.888Z,1.38
2023-01-13T12:56:09.908Z,1.82
2023-01-13T12:57:09.978Z,0.90
2023-01-13T12:58:09.894Z,0.95
2023-01-13T12:59:09.888Z,0.99
2023-01-13T13:00:09.889Z,0.80
2023-01-13T13:01:10.063Z,1.24
2023-01-13T13:02:10.036Z,1.06
2023-01-13T13:03:10.005Z,1.60
2023-01-13T13:04:09.954Z,0.60
2023-01-13T13:05:09.901Z,0.98
2023-01-13T13:06:09.949Z,1.86
2023-01-13T13:07:09.949Z,0.80
2023-01-13T13:08:09.935Z,1.56
2023-01-13T13:09:09.937Z,0.50
2023-01-13T13:10:09.887Z,1.05
2023-01-13T13:11:09.907Z,1.23
2023-01-13T13:12:09.916Z,2.30
2023-01-13T13:13:09.916Z,1.25
2023-01-13T13:14:09.881Z,0.79
2023-01-13T13:15:09.928Z,1.58
2023-01-13T13:16:09.908Z,1.76
2023-01-13T13:17:09.904Z,2.46
2023-01-13T13:18:09.905Z,1.86
2023-01-13T13:19:09.947Z,2.28
2023-01-13T13:20:10.033Z,2.49
2023-01-13T13:21:09.981Z,1.45
2023-01-13T13:22:09.951Z,2.46
2023-01-13T13:23:09.983Z,1.05
2023-01-13T13:24:09.993Z,1.80
2023-01-13T13:25:09.987Z,1.63
2023-01-13T13:26:10.034Z,2.15
2023-01-13T13:27:10.063Z,2.43
2023-01-13T13:28:10.040Z,1.06
2023-01-13T13:29:10.031Z,1.01
2023-01-13T13:30:10.214Z,0.67
2023-01-13T13:31:10.162Z,0.80
2023-01-13T13:32:10.101Z,1.36
2023-01-13T13:33:10.111Z,1.18
2023-01-13T13:34:10.119Z,1.04
2023-01-13T13:35:10.156Z,0.95
2023-01-13T13:36:10.141Z,0.06
2023-01-13T13:37:10.113Z,0.85
2023-01-13T13:38:10.177Z,0.48
2023-01-13T13:39:10.192Z,1.80
2023-01-13T13:40:10.190Z,0.94
2023-01-13T13:41:10.206Z,0.92
2023-01-13T13:42:10.226Z,1.22
2023-01-13T13:43:10.249Z,0.79
2023-01-13T13:44:10.248Z,1.17
2023-01-13T13:45:10.259Z,0.17
2023-01-13T13:46:10.377Z,1.58
2023-01-13T13:47:10.283Z,0.93
2023-01-13T13:48:10.295Z,1.19
2023-01-13T13:49:10.311Z,1.32
2023-01-13T13:50:10.305Z,0.66
2023-01-13T13:51:10.323Z,0.57
2023-01-13T13:52:10.399Z,2.39